Time;durP1;ratioP1;P1;durP2;ratioP2;P2;SDS_P1;SDS_P2;PMS_P1;PMS_P2;Temp;Humidity;BMP_temperature;BMP_pressure;BME280_temperature;BME280_humidity;BME280_pressure;Samples;Min_cycle;Max_cycle;Signal;HPM_P1;HPM_P2
2023/01/09 00:01:43;;;;;;;0.00;0.00;;;3.70;99.90;;;;;;5031109;28;20429;-72
2023/01/09 00:04:08;;;;;;;0.05;0.05;;;3.70;99.90;;;;;;5027877;28;20112;-72
2023/01/09 00:06:35;;;;;;;0.00;0.00;;;3.80;99.90;;;;;;5026646;28;20104;-72
2023/01/09 00:09:01;;;;;;;0.00;0.00;;;3.80;99.90;;;;;;5028997;28;20352;-72
2023/01/09 00:11:26;;;;;;;0.00;0.00;;;3.70;99.90;;;;;;5029930;28;20082;-72
2023/01/09 00:13:52;;;;;;;0.00;0.00;;;3.60;99.90;;;;;;5031629;28;20032;-72
2023/01/09 00:16:18;;;;;;;0.00;0.00;;;3.60;99.90;;;;;;5026419;28;20025;-72
2023/01/09 00:18:44;;;;;;;0.00;0.00;;;3.60;99.90;;;;;;5033811;28;20025;-72
2023/01/09 00:21:11;;;;;;;0.00;0.00;;;3.50;99.90;;;;;;5025528;28;20044;-72
2023/01/09 00:23:37;;;;;;;0.00;0.00;;;3.50;99.90;;;;;;5028037;28;20083;-73
2023/01/09 00:26:04;;;;;;;0.00;0.00;;;3.60;99.90;;;;;;5030834;28;20437;-72
2023/01/09 00:28:29;;;;;;;0.17;0.17;;;3.60;99.90;;;;;;5027497;28;20064;-71
2023/01/09 00:30:57;;;;;;;0.00;0.00;;;3.60;99.90;;;;;;5023719;28;20045;-72
2023/01/09 00:33:27;;;;;;;0.00;0.00;;;3.70;99.90;;;;;;5023416;28;20018;-72
2023/01/09 00:35:53;;;;;;;0.00;0.00;;;3.70;99.90;;;;;;5030868;28;20021;-72
2023/01/09 00:38:18;;;;;;;0.03;0.03;;;3.70;99.90;;;;;;5028029;28;21455;-72
2023/01/09 00:40:44;;;;;;;0.00;0.00;;;3.70;99.90;;;;;;5021894;28;20025;-72
2023/01/09 00:43:09;;;;;;;0.00;0.00;;;3.70;99.90;;;;;;5028284;28;20084;-72
2023/01/09 00:45:35;;;;;;;0.20;0.20;;;3.70;99.90;;;;;;5028212;28;20021;-72
2023/01/09 00:48:07;;;;;;;0.00;0.00;;;3.70;99.90;;;;;;5029384;28;20021;-72
2023/01/09 00:50:34;;;;;;;0.00;0.00;;;3.70;99.90;;;;;;5029702;28;20430;-72
2023/01/09 00:53:05;;;;;;;0.00;0.00;;;3.70;99.90;;;;;;5031539;28;20067;-72
2023/01/09 00:55:34;;;;;;;0.00;0.00;;;3.70;99.90;;;;;;5028225;28;20022;-73
2023/01/09 00:57:59;;;;;;;0.08;0.08;;;3.70;99.90;;;;;;5024608;28;20021;-71
2023/01/09 01:00:25;;;;;;;0.00;0.00;;;3.70;99.90;;;;;;5027833;28;20027;-72
2023/01/09 01:02:51;;;;;;;0.00;0.00;;;3.60;99.90;;;;;;5026530;28;20025;-72
2023/01/09 01:08:01;;;;;;;0.00;0.00;;;3.40;99.90;;;;;;5024619;28;20383;-72
2023/01/09 01:10:26;;;;;;;0.00;0.00;;;3.40;99.90;;;;;;5026488;28;20026;-72
2023/01/09 01:12:53;;;;;;;0.00;0.00;;;3.40;99.90;;;;;;5027315;28;20425;-72
2023/01/09 01:15:20;;;;;;;0.00;0.00;;;3.40;99.90;;;;;;5025116;28;20024;-72
2023/01/09 01:17:46;;;;;;;0.00;0.00;;;3.40;99.90;;;;;;5031011;28;20017;-72
2023/01/09 01:20:15;;;;;;;0.00;0.00;;;3.40;99.90;;;;;;5030124;28;20473;-72
2023/01/09 01:22:41;;;;;;;0.00;0.00;;;3.50;99.90;;;;;;5026394;28;20025;-72
2023/01/09 01:25:07;;;;;;;0.00;0.00;;;3.50;99.90;;;;;;5029408;28;21509;-72
2023/01/09 01:27:33;;;;;;;0.20;0.20;;;3.40;99.90;;;;;;5033862;28;20025;-72
2023/01/09 01:29:58;;;;;;;0.00;0.00;;;3.50;99.90;;;;;;5033647;28;20083;-72
2023/01/09 01:32:24;;;;;;;0.00;0.00;;;3.40;99.90;;;;;;5031980;28;20022;-72
2023/01/09 01:34:51;;;;;;;0.00;0.00;;;3.40;99.90;;;;;;5032676;28;20090;-72
2023/01/09 01:37:17;;;;;;;0.80;0.80;;;3.20;99.90;;;;;;5032428;28;20079;-72
2023/01/09 01:39:42;;;;;;;0.00;0.00;;;3.10;99.90;;;;;;5031882;28;20441;-72
2023/01/09 01:42:11;;;;;;;0.00;0.00;;;3.20;99.90;;;;;;5026935;28;20049;-72
2023/01/09 01:45:11;;;;;;;0.00;0.00;;;3.20;99.90;;;;;;5031766;28;20417;-72
2023/01/09 01:47:46;;;;;;;0.00;0.00;;;3.20;99.90;;;;;;5024706;28;20024;-72
2023/01/09 01:50:24;;;;;;;0.00;0.00;;;3.10;99.90;;;;;;5031058;28;20026;-72
2023/01/09 01:52:59;;;;;;;0.00;0.00;;;3.20;99.90;;;;;;5029112;28;20559;-72
2023/01/09 01:55:26;;;;;;;0.10;0.10;;;3.20;99.90;;;;;;5032631;28;20022;-72
2023/01/09 01:57:59;;;;;;;0.70;0.70;;;3.20;99.90;;;;;;5035879;28;20096;-72
2023/01/09 02:00:34;;;;;;;0.00;0.00;;;3.20;99.90;;;;;;5032049;28;20021;-72
2023/01/09 02:03:01;;;;;;;0.10;0.10;;;3.20;99.90;;;;;;5052767;28;20070;-73
2023/01/09 02:05:27;;;;;;;0.00;0.00;;;3.20;99.90;;;;;;5030514;28;20097;-72
2023/01/09 02:07:52;;;;;;;0.00;0.00;;;3.30;99.90;;;;;;5030231;28;20128;-72
2023/01/09 02:10:22;;;;;;;0.00;0.00;;;3.20;99.90;;;;;;5035780;28;20087;-72
2023/01/09 02:12:49;;;;;;;0.00;0.00;;;3.30;99.90;;;;;;5028669;28;20029;-72
2023/01/09 02:15:15;;;;;;;0.17;0.10;;;3.30;99.90;;;;;;5029180;28;20052;-72
2023/01/09 02:17:55;;;;;;;0.00;0.00;;;3.30;99.90;;;;;;5033992;28;20021;-72
2023/01/09 02:20:42;;;;;;;0.00;0.00;;;3.30;99.90;;;;;;5030688;28;20034;-72
2023/01/09 02:24:02;;;;;;;0.00;0.00;;;3.30;99.90;;;;;;5031267;28;20043;-72
2023/01/09 02:26:27;;;;;;;0.00;0.00;;;3.30;99.90;;;;;;5016477;28;20068;-72
2023/01/09 02:29:05;;;;;;;0.00;0.00;;;3.30;99.90;;;;;;5035653;28;20493;-72
2023/01/09 02:31:49;;;;;;;;;;;3.20;99.90;;;;;;5032544;28;20021;-72
2023/01/09 02:34:40;;;;;;;0.00;0.00;;;3.10;99.90;;;;;;5045897;28;19905;-71
2023/01/09 02:37:40;;;;;;;0.00;0.00;;;3.10;99.90;;;;;;5028097;28;20037;-72
2023/01/09 02:40:06;;;;;;;0.00;0.00;;;3.10;99.90;;;;;;5007232;28;20060;-72
2023/01/09 02:42:34;;;;;;;0.00;0.00;;;3.10;99.90;;;;;;5027698;28;20422;-72
2023/01/09 02:45:01;;;;;;;0.15;0.15;;;3.10;99.90;;;;;;5031449;28;20037;-72
2023/01/09 02:47:38;;;;;;;0.00;0.00;;;3.10;99.90;;;;;;5032695;28;20033;-72
2023/01/09 02:50:08;;;;;;;0.00;0.00;;;3.20;99.90;;;;;;5024819;28;20056;-72
2023/01/09 02:52:41;;;;;;;0.00;0.00;;;3.30;99.90;;;;;;5027827;28;20014;-73
2023/01/09 02:55:10;;;;;;;0.00;0.00;;;3.30;99.90;;;;;;5033668;28;20513;-72
2023/01/09 02:57:47;;;;;;;0.00;0.00;;;3.30;99.90;;;;;;5027197;28;20072;-72
2023/01/09 03:00:38;;;;;;;0.08;0.08;;;3.40;99.90;;;;;;5029964;28;20049;-72
2023/01/09 03:03:11;;;;;;;0.00;0.00;;;3.40;99.90;;;;;;5045003;28;20390;-72
2023/01/09 03:05:59;;;;;;;0.30;0.30;;;3.50;99.90;;;;;;5027992;28;20116;-72
2023/01/09 03:08:35;;;;;;;0.22;0.22;;;3.40;99.90;;;;;;5023605;28;20045;-72
2023/01/09 03:11:05;;;;;;;0.32;0.32;;;3.40;99.90;;;;;;5044858;28;20017;-72
2023/01/09 03:13:44;;;;;;;0.57;0.45;;;3.30;99.90;;;;;;5028857;28;20128;-72
2023/01/09 03:16:14;;;;;;;0.32;0.20;;;3.40;99.90;;;;;;5034473;28;20028;-72
2023/01/09 03:18:41;;;;;;;0.00;0.00;;;3.40;99.90;;;;;;5028681;28;20092;-72
2023/01/09 03:21:08;;;;;;;0.00;0.00;;;3.50;99.90;;;;;;5029730;28;20029;-72
2023/01/09 03:23:55;;;;;;;0.00;0.00;;;3.50;99.90;;;;;;5031346;28;20018;-72
2023/01/09 03:26:21;;;;;;;0.00;0.00;;;3.50;99.90;;;;;;5028241;28;20078;-72
2023/01/09 03:28:48;;;;;;;0.00;0.00;;;3.60;99.90;;;;;;5031451;28;20340;-73
2023/01/09 03:31:14;;;;;;;0.00;0.00;;;3.60;99.90;;;;;;5029405;28;20845;-72
2023/01/09 03:33:40;;;;;;;0.00;0.00;;;3.70;99.90;;;;;;5026289;28;20137;-72
2023/01/09 03:36:07;;;;;;;0.00;0.00;;;3.80;99.90;;;;;;5028225;28;20039;-72
2023/01/09 03:38:33;;;;;;;;;;;3.80;99.90;;;;;;5034834;28;20296;-72
2023/01/09 03:41:01;;;;;;;0.13;0.13;;;3.80;99.90;;;;;;5028971;28;19967;-72
2023/01/09 03:43:26;;;;;;;0.00;0.00;;;3.80;99.90;;;;;;5028870;28;20466;-72
2023/01/09 03:45:53;;;;;;;0.00;0.00;;;3.70;99.90;;;;;;5035313;28;20025;-72
2023/01/09 03:48:18;;;;;;;0.00;0.00;;;3.70;99.90;;;;;;5026333;28;20087;-72
2023/01/09 03:50:46;;;;;;;0.07;0.07;;;3.70;99.90;;;;;;5025478;28;20486;-72
2023/01/09 03:53:14;;;;;;;0.00;0.00;;;3.80;99.90;;;;;;5033394;28;20025;-72
2023/01/09 03:55:45;;;;;;;0.00;0.00;;;3.70;99.90;;;;;;5026498;28;20084;-72
2023/01/09 03:58:11;;;;;;;0.00;0.00;;;3.70;99.90;;;;;;5031792;28;20029;-72
2023/01/09 04:00:38;;;;;;;0.00;0.00;;;3.80;99.90;;;;;;5025408;28;20842;-73
2023/01/09 04:03:03;;;;;;;0.00;0.00;;;3.80;99.90;;;;;;5028757;28;20347;-72
2023/01/09 04:05:29;;;;;;;0.00;0.00;;;3.70;99.90;;;;;;5026261;28;20021;-73
2023/01/09 04:07:55;;;;;;;0.00;0.00;;;3.80;99.90;;;;;;5029131;28;20037;-72
2023/01/09 04:10:20;;;;;;;0.00;0.00;;;3.70;99.90;;;;;;5022772;28;20028;-72
2023/01/09 04:12:46;;;;;;;0.00;0.00;;;3.70;99.90;;;;;;5029750;28;20952;-72
2023/01/09 04:15:12;;;;;;;0.00;0.00;;;3.80;99.90;;;;;;5024222;28;20033;-72
2023/01/09 04:17:37;;;;;;;0.00;0.00;;;3.80;99.90;;;;;;5028351;28;20029;-72
2023/01/09 04:20:03;;;;;;;0.00;0.00;;;3.90;99.90;;;;;;5025415;28;20021;-72
2023/01/09 04:22:30;;;;;;;6.13;0.55;;;3.90;99.90;;;;;;5020973;28;20116;-72
2023/01/09 04:24:55;;;;;;;0.20;0.20;;;3.90;99.90;;;;;;5025992;28;20029;-72
2023/01/09 04:27:21;;;;;;;0.33;0.30;;;4.00;99.90;;;;;;5031336;28;20047;-72
2023/01/09 04:29:47;;;;;;;0.00;0.00;;;4.20;99.90;;;;;;5021660;28;20033;-72
2023/01/09 04:32:13;;;;;;;0.00;0.00;;;4.20;99.90;;;;;;5030025;28;20033;-72
2023/01/09 04:34:39;;;;;;;;;;;4.20;99.90;;;;;;5029301;28;20028;-72
2023/01/09 04:37:05;;;;;;;0.00;0.00;;;4.20;99.90;;;;;;5025499;28;19913;-73
2023/01/09 04:39:30;;;;;;;0.00;0.00;;;4.30;99.90;;;;;;5029781;28;20025;-72
2023/01/09 04:41:56;;;;;;;0.00;0.00;;;4.40;99.90;;;;;;5032518;28;20049;-72
2023/01/09 04:44:26;;;;;;;0.00;0.00;;;4.40;99.90;;;;;;5029072;28;20025;-74
2023/01/09 04:46:55;;;;;;;0.10;0.10;;;4.50;99.90;;;;;;5025329;28;20013;-72
2023/01/09 04:49:21;;;;;;;0.00;0.00;;;4.50;99.90;;;;;;5043312;28;20366;-72
2023/01/09 04:51:47;;;;;;;0.00;0.00;;;4.60;99.90;;;;;;5025560;28;20039;-72
2023/01/09 04:54:13;;;;;;;0.00;0.00;;;4.60;99.90;;;;;;5033703;28;20036;-72
2023/01/09 04:56:39;;;;;;;0.00;0.00;;;4.60;99.90;;;;;;5027690;28;20732;-72
2023/01/09 04:59:06;;;;;;;0.00;0.00;;;4.70;99.90;;;;;;5029184;28;20021;-73
2023/01/09 05:01:32;;;;;;;0.00;0.00;;;4.70;99.90;;;;;;5029372;28;20566;-72
2023/01/09 05:03:59;;;;;;;0.00;0.00;;;4.70;99.90;;;;;;5023147;28;20108;-72
2023/01/09 05:06:24;;;;;;;0.00;0.00;;;4.80;99.90;;;;;;5026828;28;20017;-72
2023/01/09 05:08:50;;;;;;;0.00;0.00;;;4.80;99.90;;;;;;5025101;28;20014;-72
2023/01/09 05:11:15;;;;;;;0.00;0.00;;;4.80;99.90;;;;;;5030973;28;20108;-73
2023/01/09 05:13:42;;;;;;;0.20;0.20;;;4.90;99.90;;;;;;5028990;28;20482;-71
2023/01/09 05:16:09;;;;;;;0.00;0.00;;;4.90;99.90;;;;;;5044837;28;21535;-72
2023/01/09 05:18:35;;;;;;;0.00;0.00;;;4.90;99.90;;;;;;5024404;28;20025;-72
2023/01/09 05:21:01;;;;;;;0.00;0.00;;;5.00;99.90;;;;;;5018882;28;20078;-72
2023/01/09 05:23:26;;;;;;;0.00;0.00;;;5.00;99.90;;;;;;5033661;28;20021;-73
2023/01/09 05:25:52;;;;;;;0.00;0.00;;;5.10;99.90;;;;;;5025814;28;20025;-73
2023/01/09 05:28:18;;;;;;;0.00;0.00;;;5.10;99.90;;;;;;5026684;28;20594;-72
2023/01/09 05:30:43;;;;;;;0.20;0.17;;;5.10;99.90;;;;;;5030550;28;20025;-73
2023/01/09 05:33:13;;;;;;;0.10;0.10;;;5.10;99.90;;;;;;5026314;28;20029;-73
2023/01/09 05:35:38;;;;;;;0.00;0.00;;;5.20;99.90;;;;;;5030109;28;20036;-73
2023/01/09 05:38:06;;;;;;;0.00;0.00;;;5.20;99.90;;;;;;5023696;28;20018;-73
2023/01/09 05:40:32;;;;;;;0.00;0.00;;;5.30;99.90;;;;;;5028500;28;20057;-72
2023/01/09 05:42:57;;;;;;;0.00;0.00;;;5.40;99.90;;;;;;5029486;28;20653;-73
2023/01/09 05:45:26;;;;;;;0.00;0.00;;;5.40;99.90;;;;;;5030961;28;20104;-73
2023/01/09 05:47:51;;;;;;;0.00;0.00;;;5.50;99.90;;;;;;5026515;28;20021;-73
2023/01/09 05:50:18;;;;;;;0.00;0.00;;;5.60;99.90;;;;;;5027186;28;20036;-72
2023/01/09 05:52:44;;;;;;;0.00;0.00;;;5.60;99.90;;;;;;5023821;28;20650;-73
2023/01/09 05:55:11;;;;;;;0.00;0.00;;;5.60;99.90;;;;;;5029693;28;20474;-73
2023/01/09 05:57:36;;;;;;;0.00;0.00;;;5.70;99.90;;;;;;5044691;28;20030;-73
2023/01/09 06:00:03;;;;;;;0.00;0.00;;;5.80;99.90;;;;;;5027172;28;20076;-72
2023/01/09 06:02:30;;;;;;;0.00;0.00;;;5.80;99.90;;;;;;5029163;28;20052;-73
2023/01/09 06:04:57;;;;;;;;;;;5.90;99.90;;;;;;5028769;28;20025;-73
2023/01/09 06:07:22;;;;;;;0.00;0.00;;;5.90;99.90;;;;;;5029532;28;19909;-73
2023/01/09 06:09:48;;;;;;;0.00;0.00;;;6.10;99.90;;;;;;5036789;28;20086;-73
2023/01/09 06:12:14;;;;;;;0.00;0.00;;;6.10;99.90;;;;;;5032056;28;20493;-73
2023/01/09 06:14:40;;;;;;;0.00;0.00;;;6.40;99.90;;;;;;5029665;28;20064;-73
2023/01/09 06:17:06;;;;;;;0.00;0.00;;;6.40;99.90;;;;;;5035209;28;20036;-73
2023/01/09 06:19:31;;;;;;;0.00;0.00;;;6.40;99.90;;;;;;5034433;28;20036;-73
2023/01/09 06:21:57;;;;;;;0.00;0.00;;;6.50;99.90;;;;;;5031186;28;20155;-73
2023/01/09 06:24:23;;;;;;;0.00;0.00;;;6.60;99.90;;;;;;5035917;28;20470;-73
2023/01/09 06:26:49;;;;;;;0.00;0.00;;;6.70;99.90;;;;;;5030222;28;20372;-73
2023/01/09 06:29:14;;;;;;;1.70;0.67;;;6.60;99.90;;;;;;5030636;28;20036;-73
2023/01/09 06:31:40;;;;;;;0.00;0.00;;;6.70;99.90;;;;;;5031776;28;20029;-73
2023/01/09 06:34:06;;;;;;;0.00;0.00;;;6.80;99.90;;;;;;5030142;28;20677;-73
2023/01/09 06:36:31;;;;;;;0.00;0.00;;;6.90;99.90;;;;;;5030481;28;20309;-73
2023/01/09 06:38:57;;;;;;;0.00;0.00;;;6.90;99.90;;;;;;5032238;28;20037;-73
2023/01/09 06:41:22;;;;;;;0.00;0.00;;;7.00;99.90;;;;;;5030514;28;20078;-73
2023/01/09 06:43:48;;;;;;;0.00;0.00;;;7.00;99.90;;;;;;5031614;28;20103;-74
2023/01/09 06:46:14;;;;;;;0.00;0.00;;;7.00;99.90;;;;;;5031222;28;20445;-73
2023/01/09 06:48:39;;;;;;;0.00;0.00;;;7.10;99.90;;;;;;5029934;28;20035;-73
2023/01/09 06:51:05;;;;;;;0.00;0.00;;;7.10;99.90;;;;;;5028735;28;20018;-73
2023/01/09 06:53:31;;;;;;;0.00;0.00;;;7.10;99.90;;;;;;5034034;28;20435;-73
2023/01/09 06:55:56;;;;;;;0.00;0.00;;;7.10;99.90;;;;;;5026257;28;20026;-73
2023/01/09 06:58:22;;;;;;;0.00;0.00;;;7.10;99.90;;;;;;5033219;28;20025;-73
2023/01/09 07:00:48;;;;;;;0.00;0.00;;;7.10;99.90;;;;;;5030026;28;20026;-74
2023/01/09 07:03:21;;;;;;;0.00;0.00;;;7.10;99.90;;;;;;5033736;28;20075;-73
2023/01/09 07:05:48;;;;;;;0.03;0.03;;;7.10;99.90;;;;;;5031036;28;20037;-73
2023/01/09 07:08:14;;;;;;;0.00;0.00;;;7.10;99.90;;;;;;5034471;28;20020;-73
2023/01/09 07:10:41;;;;;;;0.00;0.00;;;7.10;99.90;;;;;;5029131;28;20102;-74
2023/01/09 07:13:06;;;;;;;0.00;0.00;;;7.20;99.90;;;;;;5033568;28;20085;-73
2023/01/09 07:15:32;;;;;;;0.00;0.00;;;7.20;99.90;;;;;;5031940;28;20423;-73
2023/01/09 07:17:58;;;;;;;0.00;0.00;;;7.20;99.90;;;;;;5031690;28;20045;-73
2023/01/09 07:20:25;;;;;;;0.00;0.00;;;7.20;99.90;;;;;;5029094;28;20029;-73
2023/01/09 07:22:50;;;;;;;;;;;7.20;99.90;;;;;;5026867;28;20026;-73
2023/01/09 07:25:16;;;;;;;0.00;0.00;;;7.10;99.90;;;;;;5031675;28;19914;-73
2023/01/09 07:27:42;;;;;;;0.00;0.00;;;7.10;99.90;;;;;;5028021;28;20079;-73
2023/01/09 07:30:08;;;;;;;0.00;0.00;;;7.10;99.90;;;;;;5018623;28;21429;-71
2023/01/09 07:32:34;;;;;;;;;;;7.10;99.90;;;;;;5028574;28;20021;-70
2023/01/09 07:35:00;;;;;;;0.00;0.00;;;7.20;99.90;;;;;;5029683;28;19905;-70
2023/01/09 07:37:25;;;;;;;0.00;0.00;;;7.20;99.90;;;;;;5021994;28;20064;-71
2023/01/09 07:39:51;;;;;;;0.00;0.00;;;7.20;99.90;;;;;;5029666;28;20025;-71
2023/01/09 07:42:17;;;;;;;0.00;0.00;;;7.20;99.90;;;;;;5030739;28;20115;-70
2023/01/09 07:44:43;;;;;;;0.00;0.00;;;7.20;99.90;;;;;;5031057;28;20017;-73
2023/01/09 07:47:08;;;;;;;0.00;0.00;;;7.20;99.90;;;;;;5029084;28;20486;-72
2023/01/09 07:49:34;;;;;;;0.00;0.00;;;7.30;99.90;;;;;;5026189;28;20025;-72
2023/01/09 07:51:59;;;;;;;0.00;0.00;;;7.30;99.90;;;;;;5024693;28;20021;-72
2023/01/09 07:54:25;;;;;;;0.17;0.17;;;7.40;99.90;;;;;;5029241;28;20378;-72
2023/01/09 07:56:51;;;;;;;0.00;0.00;;;7.40;99.90;;;;;;5031163;28;20095;-72
2023/01/09 07:59:16;;;;;;;0.00;0.00;;;7.40;99.90;;;;;;5033587;28;20021;-72
2023/01/09 08:01:42;;;;;;;0.00;0.00;;;7.30;99.90;;;;;;5046947;28;20104;-72
2023/01/09 08:04:08;;;;;;;0.00;0.00;;;7.00;99.90;;;;;;5028857;28;20529;-72
2023/01/09 08:06:34;;;;;;;0.00;0.00;;;6.80;99.90;;;;;;5027423;28;20029;-72
2023/01/09 08:08:59;;;;;;;0.00;0.00;;;6.60;99.90;;;;;;5024470;28;20025;-72
2023/01/09 08:11:27;;;;;;;0.00;0.00;;;6.40;99.90;;;;;;5030344;28;20035;-73
2023/01/09 08:13:53;;;;;;;0.00;0.00;;;6.40;99.90;;;;;;5033679;28;20036;-73
2023/01/09 08:16:18;;;;;;;0.00;0.00;;;6.40;99.90;;;;;;5031994;28;20592;-72
2023/01/09 08:18:44;;;;;;;0.00;0.00;;;6.50;99.90;;;;;;5027975;28;20087;-72
2023/01/09 08:21:11;;;;;;;0.00;0.00;;;6.40;99.90;;;;;;5023902;28;20861;-73
2023/01/09 08:23:37;;;;;;;0.00;0.00;;;6.50;99.90;;;;;;5032333;28;20025;-73
2023/01/09 08:26:03;;;;;;;0.00;0.00;;;6.70;99.90;;;;;;5025083;28;20127;-73
2023/01/09 08:28:29;;;;;;;0.00;0.00;;;6.80;99.90;;;;;;5028570;28;20052;-72
2023/01/09 08:30:55;;;;;;;0.00;0.00;;;6.90;99.90;;;;;;5029196;28;20110;-72
2023/01/09 08:33:21;;;;;;;0.07;0.07;;;6.80;99.90;;;;;;5028429;28;20273;-73
2023/01/09 08:35:46;;;;;;;0.00;0.00;;;6.80;99.90;;;;;;5028582;28;20035;-73
2023/01/09 08:38:12;;;;;;;0.00;0.00;;;6.70;99.90;;;;;;5025712;28;20524;-73
2023/01/09 08:40:38;;;;;;;0.00;0.00;;;6.70;99.90;;;;;;5032531;28;20029;-73
2023/01/09 08:48:35;;;;;;;0.00;0.00;;;6.60;99.90;;;;;;5028672;28;20140;-73
2023/01/09 08:51:01;;;;;;;0.33;0.10;;;6.60;99.90;;;;;;5026214;28;20053;-73
2023/01/09 08:53:27;;;;;;;0.00;0.00;;;6.60;99.90;;;;;;5030199;28;20482;-72
2023/01/09 08:55:53;;;;;;;0.00;0.00;;;6.50;99.90;;;;;;5027887;28;20021;-72
2023/01/09 08:58:18;;;;;;;0.00;0.00;;;6.40;99.90;;;;;;5029061;28;20021;-72
2023/01/09 09:00:44;;;;;;;0.00;0.00;;;6.40;99.90;;;;;;5027152;28;20053;-72
2023/01/09 09:03:10;;;;;;;0.00;0.00;;;6.50;99.90;;;;;;5028555;28;20048;-72
2023/01/09 09:05:36;;;;;;;0.00;0.00;;;6.50;99.90;;;;;;5030929;28;20076;-73
2023/01/09 09:08:03;;;;;;;0.00;0.00;;;6.60;99.90;;;;;;5028381;28;20096;-72
2023/01/09 09:10:28;;;;;;;0.00;0.00;;;6.60;99.90;;;;;;5037120;28;20017;-72
2023/01/09 09:12:57;;;;;;;0.00;0.00;;;6.60;99.90;;;;;;5029722;28;20087;-72
2023/01/09 09:15:24;;;;;;;0.00;0.00;;;6.70;99.90;;;;;;5031445;28;20252;-72
2023/01/09 09:18:04;;;;;;;0.00;0.00;;;6.80;99.90;;;;;;5026487;28;20049;-73
2023/01/09 09:20:35;;;;;;;0.00;0.00;;;6.80;99.90;;;;;;5025443;28;20025;-72
2023/01/09 09:23:01;;;;;;;0.00;0.00;;;6.90;99.90;;;;;;5027362;28;20128;-73
2023/01/09 09:25:27;;;;;;;0.00;0.00;;;7.00;99.90;;;;;;5032978;28;20029;-73
2023/01/09 09:27:55;;;;;;;0.03;0.03;;;7.00;99.90;;;;;;5026229;28;20091;-73
2023/01/09 09:30:21;;;;;;;0.00;0.00;;;7.10;99.90;;;;;;5029585;28;20017;-72
2023/01/09 09:32:48;;;;;;;;;;;7.20;99.90;;;;;;5025827;28;20430;-73
2023/01/09 09:35:19;;;;;;;0.00;0.00;;;7.20;99.90;;;;;;5028510;28;19915;-72
2023/01/09 09:37:53;;;;;;;0.00;0.00;;;7.20;99.90;;;;;;5029371;28;21029;-73
2023/01/09 09:40:31;;;;;;;0.00;0.00;;;7.20;99.90;;;;;;5030942;28;20032;-72
2023/01/09 09:46:16;;;;;;;0.00;0.00;;;7.30;99.90;;;;;;5032115;28;20112;-73
2023/01/09 09:48:50;;;;;;;0.00;0.00;;;7.30;99.90;;;;;;5043641;28;20514;-72
2023/01/09 09:51:38;;;;;;;0.00;0.00;;;7.30;99.90;;;;;;5032155;28;20092;-72
2023/01/09 09:54:06;;;;;;;;;;;7.40;99.90;;;;;;5028363;28;20139;-72
2023/01/09 09:56:39;;;;;;;0.00;0.00;;;7.30;99.90;;;;;;5033255;28;20376;-72
2023/01/09 09:59:24;;;;;;;0.00;0.00;;;7.30;99.90;;;;;;5028717;28;20029;-72
2023/01/09 10:02:22;;;;;;;0.00;0.00;;;7.30;99.90;;;;;;5027712;28;20474;-72
2023/01/09 10:05:00;;;;;;;0.30;0.30;;;7.30;99.90;;;;;;5035325;28;20124;-72
2023/01/09 10:07:36;;;;;;;0.00;0.00;;;7.30;99.90;;;;;;5029746;28;20064;-72
2023/01/09 10:10:08;;;;;;;0.00;0.00;;;7.30;99.90;;;;;;5033347;28;20615;-73
2023/01/09 10:12:56;;;;;;;0.00;0.00;;;7.30;99.90;;;;;;5034990;28;20654;-72
2023/01/09 10:15:43;;;;;;;0.00;0.00;;;7.30;99.90;;;;;;5035337;28;20364;-72
2023/01/09 10:18:25;;;;;;;0.00;0.00;;;7.30;99.90;;;;;;5030369;28;20025;-72
2023/01/09 10:21:22;;;;;;;0.00;0.00;;;7.30;99.90;;;;;;5031650;28;20026;-72
2023/01/09 10:24:00;;;;;;;0.00;0.00;;;7.30;99.90;;;;;;5035050;28;20113;-72
2023/01/09 10:26:46;;;;;;;0.00;0.00;;;7.30;99.90;;;;;;5031157;28;20288;-72
2023/01/09 10:29:27;;;;;;;0.00;0.00;;;7.30;99.90;;;;;;5030262;28;20030;-73
2023/01/09 10:32:31;;;;;;;0.00;0.00;;;7.30;99.90;;;;;;5029360;28;20134;-72
2023/01/09 10:35:06;;;;;;;0.00;0.00;;;7.30;99.90;;;;;;5034697;28;20117;-72
2023/01/09 10:37:41;;;;;;;0.10;0.10;;;7.40;99.90;;;;;;5031097;28;20116;-72
2023/01/09 10:40:27;;;;;;;0.00;0.00;;;7.40;99.90;;;;;;5031343;28;20053;-72
2023/01/09 10:43:01;;;;;;;0.00;0.00;;;7.50;99.90;;;;;;5030439;28;20398;-73
2023/01/09 10:45:35;;;;;;;0.00;0.00;;;7.50;99.90;;;;;;5031129;28;20076;-72
2023/01/09 10:48:16;;;;;;;0.00;0.00;;;7.60;99.90;;;;;;5027673;28;20028;-72
2023/01/09 10:50:44;;;;;;;0.00;0.00;;;7.60;99.90;;;;;;5028896;28;20033;-72
2023/01/09 10:53:21;;;;;;;0.00;0.00;;;7.60;99.90;;;;;;5028353;28;20029;-73
2023/01/09 10:55:49;;;;;;;0.00;0.00;;;7.60;99.90;;;;;;5028483;28;20702;-73
2023/01/09 10:58:19;;;;;;;0.00;0.00;;;7.70;99.90;;;;;;5033435;28;20030;-72
2023/01/09 11:00:48;;;;;;;0.35;0.35;;;7.60;99.90;;;;;;5027833;28;20129;-73
2023/01/09 11:03:19;;;;;;;0.00;0.00;;;7.60;99.90;;;;;;5028296;28;20166;-72
2023/01/09 11:05:51;;;;;;;0.00;0.00;;;7.60;99.90;;;;;;5030093;28;20025;-72
2023/01/09 11:08:29;;;;;;;0.00;0.00;;;7.60;99.90;;;;;;5033351;28;20025;-73
2023/01/09 11:10:57;;;;;;;0.00;0.00;;;7.60;99.90;;;;;;5029178;28;20395;-73
2023/01/09 11:13:33;;;;;;;0.00;0.00;;;7.60;99.90;;;;;;5032019;28;20029;-72
2023/01/09 11:16:03;;;;;;;0.00;0.00;;;7.60;99.90;;;;;;5028641;28;20071;-73
2023/01/09 11:18:29;;;;;;;0.00;0.00;;;7.70;99.90;;;;;;5027074;28;20561;-72
2023/01/09 11:20:55;;;;;;;0.00;0.00;;;7.90;99.90;;;;;;5034196;28;20017;-72
2023/01/09 11:23:33;;;;;;;0.00;0.00;;;8.10;99.90;;;;;;5035712;28;20074;-73
2023/01/09 11:26:01;;;;;;;0.00;0.00;;;8.30;99.90;;;;;;5029905;28;20022;-73
2023/01/09 11:28:28;;;;;;;0.00;0.00;;;8.30;99.90;;;;;;5043259;28;20482;-73
2023/01/09 11:31:01;;;;;;;0.00;0.00;;;8.40;99.90;;;;;;5028482;28;20025;-73
2023/01/09 11:33:28;;;;;;;0.00;0.00;;;8.30;99.90;;;;;;5028423;28;20083;-72
2023/01/09 11:36:00;;;;;;;0.00;0.00;;;8.20;99.90;;;;;;5033863;28;20037;-72
2023/01/09 11:38:26;;;;;;;0.00;0.00;;;8.10;99.90;;;;;;5032527;28;20079;-73
2023/01/09 11:40:54;;;;;;;0.00;0.00;;;8.00;99.90;;;;;;5031843;28;20667;-72
2023/01/09 11:43:34;;;;;;;0.00;0.00;;;7.90;99.90;;;;;;5029405;28;20033;-73
2023/01/09 11:46:06;;;;;;;0.00;0.00;;;7.90;99.90;;;;;;5030757;28;20835;-73
2023/01/09 11:48:52;;;;;;;0.00;0.00;;;7.80;99.90;;;;;;5030281;28;20053;-72
2023/01/09 11:51:21;;;;;;;0.00;0.00;;;7.80;99.90;;;;;;5046111;28;20052;-72
2023/01/09 11:54:00;;;;;;;0.00;0.00;;;7.80;99.90;;;;;;5028914;28;20026;-72
2023/01/09 11:56:25;;;;;;;0.00;0.00;;;7.70;99.90;;;;;;5032526;28;20750;-72
2023/01/09 11:58:52;;;;;;;0.00;0.00;;;7.70;99.90;;;;;;5027866;28;20064;-73
2023/01/09 12:01:37;;;;;;;0.00;0.00;;;7.70;99.90;;;;;;5031934;28;20029;-72
2023/01/09 12:04:18;;;;;;;0.00;0.00;;;7.70;99.90;;;;;;5027380;28;20026;-73
2023/01/09 12:07:18;;;;;;;0.00;0.00;;;7.80;99.90;;;;;;5027786;28;20033;-72
2023/01/09 12:09:56;;;;;;;0.00;0.00;;;7.80;99.90;;;;;;5026232;28;20083;-72
2023/01/09 12:12:29;;;;;;;0.00;0.00;;;7.80;99.90;;;;;;5035329;28;20029;-73
2023/01/09 12:15:26;;;;;;;0.00;0.00;;;7.80;99.90;;;;;;5031782;28;20116;-72
2023/01/09 12:18:22;;;;;;;0.00;0.00;;;7.80;99.90;;;;;;5042788;28;20533;-72
2023/01/09 12:21:04;;;;;;;0.00;0.00;;;7.90;99.90;;;;;;5031266;28;20652;-73
2023/01/09 12:23:52;;;;;;;0.00;0.00;;;7.90;99.90;;;;;;5032313;28;20075;-72
2023/01/09 12:26:32;;;;;;;0.00;0.00;;;8.00;99.90;;;;;;5030189;28;20207;-73
2023/01/09 12:29:00;;;;;;;0.00;0.00;;;8.00;99.90;;;;;;5044592;28;20457;-73
2023/01/09 12:31:26;;;;;;;0.00;0.00;;;8.10;99.90;;;;;;5029906;28;20032;-73
2023/01/09 12:33:54;;;;;;;0.00;0.00;;;8.10;99.90;;;;;;5025010;28;20025;-72
2023/01/09 12:36:28;;;;;;;0.00;0.00;;;8.10;99.90;;;;;;5028516;28;20034;-72
2023/01/09 12:39:10;;;;;;;0.00;0.00;;;8.20;99.90;;;;;;5033615;28;20059;-72
2023/01/09 12:42:14;;;;;;;0.00;0.00;;;8.20;99.90;;;;;;5031879;28;20108;-72
2023/01/09 12:44:59;;;;;;;0.00;0.00;;;8.20;99.90;;;;;;5030999;28;20071;-73
2023/01/09 12:47:34;;;;;;;0.00;0.00;;;8.20;99.90;;;;;;5034057;28;20128;-72
2023/01/09 12:50:09;;;;;;;0.00;0.00;;;8.20;99.90;;;;;;5029365;28;20051;-72
2023/01/09 12:52:39;;;;;;;0.00;0.00;;;8.20;99.90;;;;;;5029142;28;20027;-72
2023/01/09 12:55:19;;;;;;;0.00;0.00;;;8.10;99.90;;;;;;5029335;28;20021;-72
2023/01/09 12:57:52;;;;;;;0.00;0.00;;;8.10;99.90;;;;;;5030768;28;20128;-72
2023/01/09 13:00:34;;;;;;;0.00;0.00;;;8.10;99.90;;;;;;5029682;28;20059;-72
2023/01/09 13:03:03;;;;;;;0.00;0.00;;;8.10;99.90;;;;;;5032514;28;20084;-72
2023/01/09 13:05:36;;;;;;;0.00;0.00;;;8.10;99.90;;;;;;5033428;28;20048;-72
2023/01/09 13:08:11;;;;;;;0.00;0.00;;;8.00;99.90;;;;;;5027013;28;20021;-72
2023/01/09 13:10:44;;;;;;;0.00;0.00;;;8.00;99.90;;;;;;5029614;28;20021;-73
2023/01/09 13:13:32;;;;;;;0.00;0.00;;;8.00;99.90;;;;;;5026708;28;20021;-72
2023/01/09 13:16:07;;;;;;;0.00;0.00;;;8.00;99.90;;;;;;5027140;28;20021;-73
2023/01/09 13:18:39;;;;;;;0.00;0.00;;;8.00;99.90;;;;;;5025611;28;20025;-72
2023/01/09 13:21:06;;;;;;;0.00;0.00;;;8.00;99.90;;;;;;5022399;28;20544;-72
2023/01/09 13:23:31;;;;;;;;;;;8.00;99.90;;;;;;5029835;28;20021;-72
2023/01/09 13:26:22;;;;;;;0.00;0.00;;;8.00;99.90;;;;;;5044732;28;19913;-73
2023/01/09 13:28:53;;;;;;;0.00;0.00;;;8.00;99.90;;;;;;5024376;28;20367;-72